Time;durP1;ratioP1;P1;durP2;ratioP2;P2;SDS_P1;SDS_P2;PMS_P1;PMS_P2;Temp;Humidity;BMP_temperature;BMP_pressure;BME280_temperature;BME280_humidity;BME280_pressure;Samples;Min_cycle;Max_cycle;Signal;HPM_P1;HPM_P2
2023/05/24 00:00:23;;;;;;;12.27;10.23;;;14.40;75.70;;;;;;5035336;28;20021;-73
2023/05/24 00:02:48;;;;;;;14.63;11.18;;;14.40;75.70;;;;;;5034169;28;20478;-73
2023/05/24 00:05:15;;;;;;;12.00;10.05;;;14.50;75.80;;;;;;5034934;28;20043;-73
2023/05/24 00:07:41;;;;;;;15.15;10.50;;;14.40;75.50;;;;;;5034822;28;20075;-73
2023/05/24 00:10:07;;;;;;;12.07;8.82;;;14.50;75.40;;;;;;5035290;28;20033;-73
2023/05/24 00:12:32;;;;;;;12.98;10.15;;;14.50;75.30;;;;;;5035151;28;20124;-73
2023/05/24 00:14:58;;;;;;;10.65;8.38;;;14.50;75.10;;;;;;5035205;28;20049;-73
2023/05/24 00:17:24;;;;;;;13.38;10.15;;;14.50;75.20;;;;;;5035232;28;20026;-73
2023/05/24 00:19:51;;;;;;;12.23;10.10;;;14.50;75.10;;;;;;5035269;28;20025;-73
2023/05/24 00:22:19;;;;;;;12.88;9.63;;;14.40;75.90;;;;;;5035016;28;20021;-73
2023/05/24 00:24:45;;;;;;;11.07;8.48;;;14.40;74.90;;;;;;5035230;28;20128;-73
2023/05/24 00:27:11;;;;;;;10.02;7.65;;;14.40;75.00;;;;;;5035053;28;20470;-73
2023/05/24 00:29:36;;;;;;;9.57;6.90;;;14.40;74.90;;;;;;5036590;28;20714;-73
2023/05/24 00:32:02;;;;;;;8.55;6.05;;;14.30;74.20;;;;;;5036028;28;20176;-73
2023/05/24 00:34:28;;;;;;;10.77;5.60;;;14.20;74.10;;;;;;5035123;28;20036;-74
2023/05/24 00:36:53;;;;;;;7.35;5.88;;;14.20;74.00;;;;;;5034833;28;20030;-72
2023/05/24 00:39:19;;;;;;;7.18;5.82;;;14.20;73.90;;;;;;5034845;28;20051;-73
2023/05/24 00:41:44;;;;;;;9.82;5.97;;;14.30;73.80;;;;;;5034696;28;20021;-72
2023/05/24 00:44:10;;;;;;;8.13;5.55;;;14.20;73.60;;;;;;5034710;28;20025;-72
2023/05/24 00:46:36;;;;;;;5.80;4.78;;;14.20;73.50;;;;;;5034799;28;20052;-72
2023/05/24 00:49:03;;;;;;;6.70;5.68;;;14.30;73.50;;;;;;5034739;28;20053;-73
2023/05/24 00:51:31;;;;;;;7.57;4.60;;;14.30;74.20;;;;;;5034495;28;20029;-73
2023/05/24 00:53:57;;;;;;;7.63;5.07;;;14.30;74.20;;;;;;5034637;28;20075;-73
2023/05/24 00:56:22;;;;;;;6.20;5.13;;;14.30;73.20;;;;;;5034503;28;20025;-73
2023/05/24 00:58:53;;;;;;;5.78;5.18;;;14.30;72.90;;;;;;5032731;28;20048;-73
2023/05/24 01:01:18;;;;;;;7.45;5.65;;;14.30;72.90;;;;;;5034155;28;20075;-74
2023/05/24 01:10:39;;;;;;;8.68;6.40;;;14.10;73.20;;;;;;5034236;28;20117;-73
2023/05/24 01:13:28;;;;;;;10.93;6.25;;;14.10;73.20;;;;;;5034055;28;20025;-73
2023/05/24 01:16:06;;;;;;;7.35;4.95;;;14.00;73.60;;;;;;5025027;28;20034;-74
2023/05/24 01:18:35;;;;;;;6.75;5.45;;;14.00;73.50;;;;;;5033295;28;20474;-73
2023/05/24 01:21:25;;;;;;;7.47;5.38;;;14.00;73.50;;;;;;5033982;28;20029;-73
2023/05/24 01:24:13;;;;;;;6.63;5.43;;;14.10;73.60;;;;;;5033928;28;20030;-73
2023/05/24 01:26:59;;;;;;;9.57;5.97;;;14.00;73.50;;;;;;5033902;28;20025;-74
2023/05/24 01:29:25;;;;;;;7.65;6.00;;;14.00;73.40;;;;;;5033814;28;20022;-74
2023/05/24 01:31:52;;;;;;;8.38;6.30;;;14.00;73.30;;;;;;5033620;28;20417;-74
2023/05/24 01:34:18;;;;;;;7.88;5.47;;;14.00;74.20;;;;;;5033688;28;20021;-73
2023/05/24 01:36:44;;;;;;;8.65;6.35;;;14.00;73.50;;;;;;5033542;28;20033;-74
2023/05/24 01:39:10;;;;;;;6.53;5.82;;;14.00;73.50;;;;;;5033747;28;20202;-74
2023/05/24 01:41:45;;;;;;;8.38;5.68;;;13.90;73.70;;;;;;5033692;28;20026;-74
2023/05/24 01:44:17;;;;;;;;;;;14.00;73.70;;;;;;5034106;28;20044;-73
2023/05/24 01:46:48;;;;;;;6.65;5.68;;;14.00;73.70;;;;;;5033581;28;19905;-73
2023/05/24 01:49:24;;;;;;;8.35;5.88;;;14.00;73.60;;;;;;5033212;28;20049;-74
2023/05/24 01:52:02;;;;;;;9.15;5.90;;;14.00;73.60;;;;;;5033395;28;20037;-73
2023/05/24 01:54:32;;;;;;;6.95;5.20;;;13.90;73.60;;;;;;5033310;28;20026;-73
2023/05/24 01:56:58;;;;;;;9.65;5.25;;;13.90;73.50;;;;;;5033430;28;20029;-74
2023/05/24 01:59:27;;;;;;;7.03;5.43;;;13.90;73.60;;;;;;5033471;28;20492;-74
2023/05/24 02:01:53;;;;;;;8.45;6.00;;;13.90;73.60;;;;;;5033229;28;20022;-73
2023/05/24 02:04:19;;;;;;;6.70;5.57;;;13.80;73.70;;;;;;5033205;28;20036;-73
2023/05/24 02:06:44;;;;;;;8.35;5.80;;;13.70;73.90;;;;;;5033108;28;20025;-74
2023/05/24 02:09:10;;;;;;;7.70;6.20;;;13.70;73.60;;;;;;5033068;28;20025;-74
2023/05/24 02:11:35;;;;;;;7.70;5.60;;;13.50;74.10;;;;;;5031479;28;20044;-74
2023/05/24 02:14:01;;;;;;;9.23;6.72;;;13.40;74.30;;;;;;5033124;28;20029;-74
2023/05/24 02:16:29;;;;;;;7.00;5.60;;;13.30;74.70;;;;;;5033033;28;20029;-73
2023/05/24 02:18:55;;;;;;;9.48;5.95;;;13.20;75.30;;;;;;5032970;28;20060;-74
2023/05/24 02:21:22;;;;;;;10.45;6.75;;;13.10;76.20;;;;;;5033021;28;20029;-74
2023/05/24 02:23:47;;;;;;;8.93;5.85;;;13.10;75.50;;;;;;5032910;28;20124;-73
2023/05/24 02:26:13;;;;;;;8.18;5.65;;;13.10;75.40;;;;;;5032962;28;20056;-73
2023/05/24 02:28:39;;;;;;;9.23;6.13;;;13.00;75.30;;;;;;5032984;28;20032;-74
2023/05/24 02:31:05;;;;;;;6.00;5.28;;;13.00;75.50;;;;;;5032754;28;20045;-74
2023/05/24 02:33:30;;;;;;;10.00;6.65;;;12.90;75.70;;;;;;5032928;28;20071;-74
2023/05/24 02:35:56;;;;;;;7.63;5.78;;;13.00;75.80;;;;;;5032924;28;20382;-74
2023/05/24 02:38:22;;;;;;;8.77;6.63;;;12.90;75.70;;;;;;5032769;28;20033;-73
2023/05/24 02:40:47;;;;;;;7.70;5.82;;;12.90;75.80;;;;;;5032859;28;20026;-74
2023/05/24 02:43:13;;;;;;;9.10;6.10;;;12.90;76.40;;;;;;5032891;28;20029;-74
2023/05/24 02:45:39;;;;;;;9.57;5.80;;;12.80;75.70;;;;;;5032840;28;20024;-74
2023/05/24 02:48:04;;;;;;;8.23;5.80;;;12.80;76.60;;;;;;5032625;28;20183;-74
2023/05/24 02:50:30;;;;;;;8.82;6.07;;;12.70;76.00;;;;;;5031512;28;20061;-74
2023/05/24 02:52:55;;;;;;;8.20;5.45;;;12.70;76.00;;;;;;5032830;28;20549;-74
2023/05/24 02:55:21;;;;;;;8.82;5.82;;;12.70;76.20;;;;;;5032770;28;20036;-74
2023/05/24 02:57:46;;;;;;;11.82;6.03;;;12.60;76.00;;;;;;5033790;28;20036;-73
2023/05/24 03:00:13;;;;;;;9.00;5.63;;;12.60;76.30;;;;;;5034261;28;20053;-73
2023/05/24 03:02:39;;;;;;;7.55;5.22;;;12.60;76.50;;;;;;5031883;28;20492;-73
2023/05/24 03:05:06;;;;;;;9.50;5.35;;;12.60;76.40;;;;;;5033111;28;20083;-73
2023/05/24 03:07:32;;;;;;;7.32;4.97;;;12.70;76.40;;;;;;5032827;28;20029;-74
2023/05/24 03:09:57;;;;;;;8.88;5.72;;;12.80;76.00;;;;;;5033085;28;20037;-74
2023/05/24 03:12:23;;;;;;;12.15;5.45;;;12.80;75.70;;;;;;5032928;28;20046;-73
2023/05/24 03:14:49;;;;;;;7.65;5.72;;;12.70;75.50;;;;;;5035805;28;20049;-74
2023/05/24 03:17:14;;;;;;;9.38;5.72;;;12.70;75.60;;;;;;5035360;28;20026;-73
2023/05/24 03:19:40;;;;;;;10.55;5.47;;;12.70;75.60;;;;;;5036080;28;20030;-74
2023/05/24 03:22:06;;;;;;;8.15;4.60;;;12.70;75.80;;;;;;5036230;28;20105;-73
2023/05/24 03:24:32;;;;;;;7.70;5.50;;;12.70;75.70;;;;;;5033872;28;20025;-74
2023/05/24 03:26:57;;;;;;;7.78;5.65;;;12.70;75.20;;;;;;5032703;28;20470;-73
2023/05/24 03:29:23;;;;;;;8.85;5.47;;;12.60;75.10;;;;;;5032437;28;20484;-73
2023/05/24 03:31:49;;;;;;;9.65;5.47;;;12.60;75.40;;;;;;5032229;28;20033;-72
2023/05/24 03:34:14;;;;;;;5.82;4.35;;;12.60;75.50;;;;;;5032247;28;20022;-73
2023/05/24 03:36:40;;;;;;;9.63;5.05;;;12.60;75.40;;;;;;5032314;28;20044;-73
2023/05/24 03:39:06;;;;;;;6.22;4.82;;;12.70;75.30;;;;;;5032225;28;20104;-73
2023/05/24 03:41:32;;;;;;;7.75;4.63;;;12.80;75.20;;;;;;5031560;28;20539;-73
2023/05/24 03:43:58;;;;;;;7.53;5.13;;;12.80;74.40;;;;;;5035809;28;20041;-73
2023/05/24 03:46:24;;;;;;;10.20;5.28;;;12.80;73.70;;;;;;5035624;28;20112;-73
2023/05/24 03:48:49;;;;;;;8.13;4.93;;;12.70;73.90;;;;;;5035433;28;20119;-73
2023/05/24 03:51:15;;;;;;;12.25;5.18;;;12.70;73.90;;;;;;5035089;28;20037;-73
2023/05/24 03:53:40;;;;;;;8.10;4.18;;;12.70;73.70;;;;;;5035455;28;20062;-75
2023/05/24 03:56:06;;;;;;;11.35;5.35;;;12.80;73.40;;;;;;5035465;28;20030;-73
2023/05/24 03:58:32;;;;;;;12.25;5.20;;;12.80;72.80;;;;;;5035276;28;20053;-74
2023/05/24 04:00:57;;;;;;;8.40;5.00;;;12.70;72.80;;;;;;5035287;28;20033;-73
2023/05/24 04:03:24;;;;;;;6.63;4.38;;;12.70;73.00;;;;;;5035264;28;20056;-73
2023/05/24 04:05:50;;;;;;;9.40;4.65;;;12.70;72.90;;;;;;5035372;28;20385;-73
2023/05/24 04:08:16;;;;;;;9.75;4.68;;;12.70;72.50;;;;;;5035196;28;20032;-72
2023/05/24 04:10:41;;;;;;;9.13;4.95;;;12.60;71.90;;;;;;5035222;28;20021;-73
2023/05/24 04:13:07;;;;;;;12.77;5.80;;;12.60;72.10;;;;;;5035230;28;20064;-72
2023/05/24 04:15:33;;;;;;;11.70;5.15;;;12.60;72.10;;;;;;5035062;28;20017;-72
2023/05/24 04:17:59;;;;;;;11.60;5.53;;;12.60;71.90;;;;;;5033757;28;20080;-73
2023/05/24 04:20:26;;;;;;;8.48;4.68;;;12.60;71.60;;;;;;5035138;28;20055;-73
2023/05/24 04:22:52;;;;;;;10.18;5.38;;;12.60;71.20;;;;;;5035067;28;20474;-73
2023/05/24 04:25:18;;;;;;;9.15;4.75;;;12.60;71.10;;;;;;5042780;28;20390;-73
2023/05/24 04:27:43;;;;;;;14.35;5.65;;;12.50;71.20;;;;;;5035177;28;20026;-72
2023/05/24 04:30:10;;;;;;;6.80;4.20;;;12.40;71.30;;;;;;5034891;28;20033;-73
2023/05/24 04:32:36;;;;;;;9.25;4.80;;;12.40;71.60;;;;;;5034823;28;20044;-73
2023/05/24 04:35:03;;;;;;;12.45;5.75;;;12.30;71.70;;;;;;5033936;28;20447;-73
2023/05/24 04:37:30;;;;;;;16.73;5.40;;;12.30;71.70;;;;;;5034898;28;20160;-74
2023/05/24 04:39:56;;;;;;;10.52;4.90;;;12.20;72.10;;;;;;5038243;28;20413;-74
2023/05/24 04:42:22;;;;;;;11.07;5.75;;;12.20;71.90;;;;;;5034846;28;20018;-74
2023/05/24 04:44:47;;;;;;;7.10;4.57;;;12.20;72.00;;;;;;5034547;28;20028;-75
2023/05/24 04:47:13;;;;;;;10.10;5.00;;;12.20;71.90;;;;;;5034446;28;20022;-74
2023/05/24 04:49:39;;;;;;;13.13;5.57;;;12.30;71.80;;;;;;5034624;28;20033;-74
2023/05/24 04:52:05;;;;;;;12.00;5.20;;;12.20;71.40;;;;;;5034459;28;20493;-74
2023/05/24 04:54:30;;;;;;;11.27;4.85;;;12.20;71.60;;;;;;5033286;28;20025;-74
2023/05/24 04:56:56;;;;;;;9.75;4.43;;;12.20;71.50;;;;;;5034412;28;20470;-74
2023/05/24 04:59:21;;;;;;;12.48;5.40;;;12.30;71.70;;;;;;5034297;28;20026;-74
2023/05/24 05:01:47;;;;;;;11.88;4.60;;;12.40;71.30;;;;;;5034417;28;20390;-74
2023/05/24 05:04:13;;;;;;;10.48;4.90;;;12.40;70.90;;;;;;5034138;28;20044;-74
2023/05/24 05:06:39;;;;;;;10.38;5.15;;;12.50;70.60;;;;;;5034272;28;20026;-74
2023/05/24 05:09:09;;;;;;;12.40;4.72;;;12.60;70.10;;;;;;5034168;28;20021;-73
2023/05/24 05:11:37;;;;;;;10.90;4.72;;;12.70;69.80;;;;;;5033937;28;20037;-74
2023/05/24 05:14:03;;;;;;;12.50;4.50;;;12.80;69.20;;;;;;5033921;28;20073;-74
2023/05/24 05:16:29;;;;;;;10.80;4.80;;;13.00;68.70;;;;;;5033752;28;20560;-74
2023/05/24 05:18:54;;;;;;;14.20;5.13;;;13.00;68.20;;;;;;5033494;28;20474;-74
2023/05/24 05:21:20;;;;;;;14.93;5.50;;;13.00;68.10;;;;;;5033367;28;20100;-74
2023/05/24 05:23:45;;;;;;;14.70;5.32;;;13.00;68.00;;;;;;5033730;28;20037;-73
2023/05/24 05:26:11;;;;;;;13.25;5.90;;;13.00;68.00;;;;;;5033837;28;20079;-74
2023/05/24 05:28:37;;;;;;;12.85;5.60;;;13.10;68.00;;;;;;5033432;28;20033;-74
2023/05/24 05:31:02;;;;;;;8.20;4.63;;;13.00;68.10;;;;;;5033259;28;20103;-74
2023/05/24 05:33:30;;;;;;;12.23;5.20;;;13.00;68.10;;;;;;5033566;28;20052;-74
2023/05/24 05:35:56;;;;;;;13.80;5.60;;;12.90;68.40;;;;;;5033562;28;20080;-74
2023/05/24 05:38:21;;;;;;;16.27;5.68;;;12.80;68.20;;;;;;5033510;28;20374;-74
2023/05/24 05:40:47;;;;;;;12.13;5.30;;;12.70;68.80;;;;;;5033367;28;20500;-74
2023/05/24 05:43:13;;;;;;;10.55;5.47;;;12.50;68.90;;;;;;5032016;28;20032;-73
2023/05/24 05:45:38;;;;;;;14.70;4.75;;;12.50;68.90;;;;;;5033303;28;20346;-74
2023/05/24 05:48:04;;;;;;;12.05;5.35;;;12.40;69.20;;;;;;5033058;28;20053;-74
2023/05/24 05:50:29;;;;;;;8.90;4.93;;;12.40;69.00;;;;;;5033306;28;20029;-73
2023/05/24 05:52:56;;;;;;;12.85;5.43;;;12.40;69.20;;;;;;5033041;28;20481;-73
2023/05/24 05:55:23;;;;;;;11.70;5.30;;;12.30;69.20;;;;;;5033176;28;20049;-73
2023/05/24 05:57:49;;;;;;;12.10;5.35;;;12.40;69.30;;;;;;5031860;28;20044;-74
2023/05/24 06:00:15;;;;;;;14.30;5.70;;;12.60;68.90;;;;;;5033051;28;20537;-74
2023/05/24 06:02:40;;;;;;;16.30;6.18;;;12.60;68.50;;;;;;5032887;28;20033;-74
2023/05/24 06:05:06;;;;;;;11.80;5.22;;;12.60;68.30;;;;;;5032590;28;20033;-74
2023/05/24 06:07:32;;;;;;;12.93;5.32;;;12.60;68.60;;;;;;5033036;28;20057;-75
2023/05/24 06:09:58;;;;;;;10.68;5.00;;;12.70;68.50;;;;;;5033003;28;20338;-74
2023/05/24 06:12:24;;;;;;;14.40;5.13;;;12.90;68.50;;;;;;5032649;28;20041;-73
2023/05/24 06:14:51;;;;;;;10.77;4.68;;;13.00;67.50;;;;;;5031504;28;20060;-73
2023/05/24 06:17:17;;;;;;;13.05;5.78;;;13.10;67.40;;;;;;5032802;28;20025;-73
2023/05/24 06:19:42;;;;;;;12.40;5.72;;;13.10;66.50;;;;;;5032462;28;20013;-73
2023/05/24 06:22:08;;;;;;;12.88;6.10;;;13.20;66.20;;;;;;5032651;28;20075;-73
2023/05/24 06:24:34;;;;;;;14.48;4.85;;;13.30;66.30;;;;;;5032721;28;20513;-73
2023/05/24 06:27:00;;;;;;;16.48;5.15;;;13.30;66.30;;;;;;5032801;28;20029;-74
2023/05/24 06:29:26;;;;;;;18.55;5.53;;;13.30;66.00;;;;;;5032703;28;20435;-73
2023/05/24 06:31:51;;;;;;;13.18;5.13;;;13.30;65.80;;;;;;5031038;28;20139;-74
2023/05/24 06:34:20;;;;;;;13.68;5.15;;;13.20;65.90;;;;;;5032621;28;20044;-73
2023/05/24 06:36:47;;;;;;;14.68;5.78;;;13.10;66.50;;;;;;5032479;28;20504;-74
2023/05/24 06:39:13;;;;;;;13.95;5.97;;;13.10;66.70;;;;;;5032541;28;20021;-73
2023/05/24 06:41:39;;;;;;;13.65;5.95;;;13.20;66.50;;;;;;5032386;28;20394;-73
2023/05/24 06:44:05;;;;;;;19.60;6.47;;;13.00;66.40;;;;;;5032428;28;20108;-74
2023/05/24 06:46:31;;;;;;;14.32;6.63;;;13.00;66.60;;;;;;5032076;28;20108;-73
2023/05/24 06:48:57;;;;;;;15.65;6.30;;;12.90;67.10;;;;;;5030838;28;20045;-73
2023/05/24 06:51:22;;;;;;;14.18;6.07;;;12.80;67.00;;;;;;5032439;28;20046;-74
2023/05/24 06:53:48;;;;;;;13.93;5.72;;;12.90;67.40;;;;;;5032337;28;20114;-74
2023/05/24 06:56:14;;;;;;;14.35;6.10;;;13.00;67.30;;;;;;5032481;28;20026;-74
2023/05/24 06:58:39;;;;;;;13.15;5.90;;;13.00;66.60;;;;;;5032121;28;20033;-73
2023/05/24 07:01:05;;;;;;;18.55;5.80;;;13.00;66.80;;;;;;5031132;28;20022;-74
2023/05/24 07:03:31;;;;;;;13.88;6.43;;;13.10;67.00;;;;;;5032328;28;20025;-73
2023/05/24 07:05:57;;;;;;;17.45;6.15;;;13.30;66.40;;;;;;5032209;28;20021;-75
2023/05/24 07:08:24;;;;;;;12.82;6.13;;;13.30;65.80;;;;;;5032171;28;20493;-76
2023/05/24 07:10:50;;;;;;;14.38;5.82;;;13.20;65.70;;;;;;5032261;28;20025;-73
2023/05/24 07:13:15;;;;;;;15.43;6.78;;;13.20;66.30;;;;;;5032263;28;20036;-74
2023/05/24 07:15:41;;;;;;;11.98;5.78;;;13.10;66.40;;;;;;5032248;28;20032;-73
2023/05/24 07:18:07;;;;;;;11.95;5.50;;;13.20;66.20;;;;;;5035524;28;20048;-74
2023/05/24 07:20:32;;;;;;;17.50;6.88;;;13.30;65.70;;;;;;5036246;28;20036;-74
2023/05/24 07:22:59;;;;;;;12.45;6.05;;;13.40;65.30;;;;;;5036028;28;20095;-74
2023/05/24 07:25:24;;;;;;;14.02;7.25;;;13.50;65.30;;;;;;5036027;28;20025;-74
2023/05/24 07:27:50;;;;;;;19.70;7.65;;;13.60;64.90;;;;;;5035951;28;20394;-74
2023/05/24 07:30:15;;;;;;;15.25;5.97;;;13.70;64.50;;;;;;5034656;28;20385;-74
2023/05/24 07:32:41;;;;;;;13.85;6.80;;;13.60;64.60;;;;;;5035652;28;20490;-74
2023/05/24 07:35:08;;;;;;;25.42;7.82;;;13.60;64.30;;;;;;5035692;28;20064;-75
2023/05/24 07:37:33;;;;;;;12.68;6.60;;;13.80;81.60;;;;;;5035643;28;20109;-74
2023/05/24 07:39:59;;;;;;;15.05;6.78;;;14.10;76.90;;;;;;5035368;28;20100;-75
2023/05/24 07:42:24;;;;;;;16.15;6.07;;;14.40;69.10;;;;;;5035277;28;20080;-73
2023/05/24 07:44:50;;;;;;;13.55;5.43;;;14.60;67.30;;;;;;5035328;28;20030;-74
2023/05/24 07:47:15;;;;;;;16.83;5.90;;;14.80;67.40;;;;;;5034129;28;20048;-75
2023/05/24 07:49:41;;;;;;;19.35;6.35;;;15.10;65.70;;;;;;5035710;28;20041;-74
2023/05/24 07:52:07;;;;;;;16.13;5.95;;;15.30;62.90;;;;;;5035479;28;20412;-74
2023/05/24 07:54:32;;;;;;;11.95;5.05;;;15.60;61.00;;;;;;5035301;28;20388;-76
2023/05/24 07:56:58;;;;;;;11.55;5.15;;;15.80;59.60;;;;;;5035539;28;20040;-74
2023/05/24 07:59:24;;;;;;;16.50;4.90;;;15.90;58.60;;;;;;5035248;28;20028;-74
2023/05/24 08:01:49;;;;;;;12.68;4.82;;;16.10;58.20;;;;;;5035389;28;20083;-75
2023/05/24 08:04:15;;;;;;;12.70;5.45;;;16.20;57.10;;;;;;5034014;28;20017;-75
2023/05/24 08:06:41;;;;;;;18.25;5.85;;;16.30;56.60;;;;;;5034513;28;20112;-74
2023/05/24 08:09:08;;;;;;;18.15;6.15;;;16.40;56.60;;;;;;5035123;28;20028;-76
2023/05/24 08:11:40;;;;;;;17.02;5.75;;;16.50;56.00;;;;;;5034931;28;20450;-75
2023/05/24 08:14:06;;;;;;;15.20;6.22;;;16.50;55.10;;;;;;5034751;28;20651;-74
2023/05/24 08:16:31;;;;;;;15.07;6.47;;;16.40;54.40;;;;;;5034952;28;20060;-75
2023/05/24 08:18:57;;;;;;;17.80;6.07;;;16.20;55.80;;;;;;5034845;28;20032;-74
2023/05/24 08:21:22;;;;;;;16.13;6.10;;;16.20;55.90;;;;;;5034302;28;20026;-77
2023/05/24 08:23:48;;;;;;;19.27;6.70;;;16.10;55.70;;;;;;5034939;28;20045;-73
2023/05/24 08:26:15;;;;;;;14.00;5.60;;;15.80;55.20;;;;;;5034268;28;20108;-73
2023/05/24 08:28:41;;;;;;;17.05;6.40;;;15.40;57.00;;;;;;5033670;28;20132;-73
2023/05/24 08:31:07;;;;;;;14.18;6.60;;;15.20;57.30;;;;;;5034392;28;20028;-75
2023/05/24 08:33:32;;;;;;;15.63;6.85;;;14.90;58.50;;;;;;5034842;28;20033;-72
2023/05/24 08:35:58;;;;;;;13.25;5.90;;;14.80;58.70;;;;;;5034297;28;20075;-73
2023/05/24 08:38:23;;;;;;;17.27;6.25;;;14.80;58.60;;;;;;5033379;28;20111;-73
2023/05/24 08:40:49;;;;;;;12.80;5.90;;;14.80;58.30;;;;;;5034532;28;20022;-74
2023/05/24 08:43:15;;;;;;;14.82;7.05;;;15.00;58.40;;;;;;5032715;28;20497;-74
2023/05/24 08:45:41;;;;;;;18.17;6.65;;;15.20;59.10;;;;;;5034315;28;20032;-73
2023/05/24 08:48:08;;;;;;;15.18;6.85;;;15.00;58.00;;;;;;5034304;28;20049;-73
2023/05/24 08:50:34;;;;;;;14.43;6.05;;;15.10;57.80;;;;;;5034519;28;20037;-73
2023/05/24 08:53:01;;;;;;;15.55;7.25;;;14.90;58.20;;;;;;5034197;28;20044;-73
2023/05/24 08:55:28;;;;;;;15.68;6.85;;;14.70;58.80;;;;;;5034287;28;20024;-73
2023/05/24 08:57:55;;;;;;;22.10;7.07;;;14.50;58.70;;;;;;5034378;28;20034;-73
2023/05/24 09:00:21;;;;;;;15.05;6.53;;;14.40;58.90;;;;;;5033232;28;20051;-73
2023/05/24 09:02:48;;;;;;;21.65;7.35;;;14.30;59.30;;;;;;5033259;28;20021;-73
2023/05/24 09:05:15;;;;;;;16.55;6.22;;;14.50;59.40;;;;;;5032422;28;20083;-73
2023/05/24 09:07:43;;;;;;;15.10;6.28;;;14.50;58.70;;;;;;5032635;28;20079;-73
2023/05/24 09:10:12;;;;;;;15.68;6.47;;;14.60;58.60;;;;;;5029795;28;20389;-73
2023/05/24 09:12:39;;;;;;;21.77;7.63;;;14.70;58.40;;;;;;5031302;28;20044;-72
2023/05/24 09:15:06;;;;;;;14.60;6.07;;;14.70;57.30;;;;;;5032321;28;20017;-72
2023/05/24 09:17:33;;;;;;;19.77;6.50;;;14.60;57.10;;;;;;5032614;28;20021;-72
2023/05/24 09:19:59;;;;;;;18.02;7.55;;;14.40;57.60;;;;;;5032465;28;20028;-74
2023/05/24 09:22:29;;;;;;;15.52;6.28;;;14.20;59.00;;;;;;5032695;28;20017;-73
2023/05/24 09:25:00;;;;;;;18.23;6.82;;;14.10;60.10;;;;;;5032139;28;20021;-73
2023/05/24 09:27:26;;;;;;;17.40;6.25;;;13.90;61.60;;;;;;5033510;28;20034;-73
2023/05/24 09:29:53;;;;;;;16.15;6.03;;;13.90;62.70;;;;;;5033518;28;20469;-73
2023/05/24 09:32:23;;;;;;;17.92;6.60;;;13.70;62.30;;;;;;5033234;28;20136;-72
2023/05/24 09:34:51;;;;;;;10.63;5.32;;;13.70;62.20;;;;;;5032004;28;20477;-72
2023/05/24 09:37:20;;;;;;;18.70;5.85;;;13.80;61.80;;;;;;5033492;28;20017;-73
2023/05/24 09:39:47;;;;;;;17.45;6.15;;;13.90;61.10;;;;;;5032148;28;20018;-72
2023/05/24 09:42:27;;;;;;;16.52;5.88;;;14.00;60.90;;;;;;5033086;28;20029;-73
2023/05/24 09:45:06;;;;;;;18.92;5.50;;;14.20;61.00;;;;;;5033193;28;20017;-73
2023/05/24 09:47:33;;;;;;;17.17;7.07;;;14.20;59.80;;;;;;5033101;28;20116;-73
2023/05/24 09:50:00;;;;;;;12.90;6.05;;;14.40;59.30;;;;;;5032133;28;20037;-73
2023/05/24 09:52:26;;;;;;;19.55;6.78;;;14.50;58.90;;;;;;5033162;28;20080;-73
2023/05/24 09:54:52;;;;;;;10.48;5.20;;;14.60;58.50;;;;;;5032995;28;20026;-74
2023/05/24 09:57:21;;;;;;;17.67;6.82;;;14.60;58.30;;;;;;5033201;28;20075;-74
2023/05/24 09:59:47;;;;;;;14.43;6.03;;;14.60;58.30;;;;;;5032953;28;20079;-73
2023/05/24 10:02:12;;;;;;;20.48;7.13;;;14.60;59.00;;;;;;5032926;28;20382;-73
2023/05/24 10:04:38;;;;;;;15.02;5.38;;;14.60;58.60;;;;;;5032770;28;20104;-73
2023/05/24 10:07:06;;;;;;;21.52;6.90;;;14.60;58.70;;;;;;5032567;28;20033;-73
2023/05/24 10:09:33;;;;;;;13.80;5.90;;;14.50;58.90;;;;;;5032709;28;20509;-73
2023/05/24 10:12:06;;;;;;;19.52;6.60;;;14.40;58.70;;;;;;5032498;28;20409;-73
2023/05/24 10:14:37;;;;;;;14.88;5.85;;;14.10;59.00;;;;;;5032746;28;20129;-73
2023/05/24 10:17:04;;;;;;;29.42;13.00;;;14.20;59.50;;;;;;5032955;28;20028;-73
2023/05/24 10:19:33;;;;;;;23.52;9.98;;;14.30;59.50;;;;;;5032727;28;20053;-73
2023/05/24 10:22:03;;;;;;;17.80;7.43;;;14.30;59.30;;;;;;5032863;28;20028;-74
2023/05/24 10:24:35;;;;;;;19.13;7.32;;;14.30;59.20;;;;;;5032801;28;20120;-73
2023/05/24 10:27:06;;;;;;;18.65;7.00;;;14.30;59.10;;;;;;5032887;28;20068;-73
2023/05/24 10:30:00;;;;;;;14.02;5.85;;;14.30;59.00;;;;;;5032787;28;20026;-73
2023/05/24 10:32:30;;;;;;;16.00;6.65;;;14.40;58.80;;;;;;5032683;28;20030;-73
2023/05/24 10:34:58;;;;;;;17.35;6.95;;;14.40;58.70;;;;;;5032654;28;20018;-73
2023/05/24 10:37:25;;;;;;;16.42;6.15;;;14.50;58.70;;;;;;5032494;28;20030;-72
2023/05/24 10:39:51;;;;;;;15.20;5.43;;;14.50;58.90;;;;;;5032503;28;20053;-72
2023/05/24 10:42:16;;;;;;;16.67;6.63;;;14.60;58.70;;;;;;5032436;28;20437;-73
2023/05/24 10:44:44;;;;;;;15.70;6.80;;;14.70;58.30;;;;;;5032565;28;20021;-71
2023/05/24 10:47:11;;;;;;;14.68;5.93;;;14.60;57.90;;;;;;5032414;28;20088;-72
2023/05/24 10:49:46;;;;;;;18.05;8.27;;;14.70;58.20;;;;;;5032395;28;20021;-73
2023/05/24 10:52:12;;;;;;;22.98;7.22;;;14.70;57.80;;;;;;5035962;28;20474;-73
2023/05/24 10:54:38;;;;;;;18.90;6.95;;;14.60;57.00;;;;;;5036651;28;20028;-73
2023/05/24 10:57:05;;;;;;;15.13;6.65;;;14.60;57.10;;;;;;5037056;28;20052;-73
2023/05/24 10:59:37;;;;;;;21.10;7.40;;;14.40;57.20;;;;;;5036306;28;20520;-74
2023/05/24 11:02:08;;;;;;;18.40;7.43;;;14.20;57.50;;;;;;5035868;28;20025;-74
2023/05/24 11:04:37;;;;;;;15.52;6.95;;;14.20;57.80;;;;;;5036478;28;20511;-74
2023/05/24 11:07:04;;;;;;;15.98;7.00;;;14.20;58.40;;;;;;5036870;28;20037;-74
2023/05/24 11:09:34;;;;;;;15.95;6.70;;;14.40;58.50;;;;;;5036694;28;20021;-73
2023/05/24 11:12:06;;;;;;;11.43;6.00;;;14.50;58.60;;;;;;5036184;28;20493;-72
2023/05/24 11:14:38;;;;;;;16.83;7.35;;;14.80;58.00;;;;;;5036465;28;20478;-71
2023/05/24 11:17:06;;;;;;;14.85;6.65;;;14.90;57.70;;;;;;5036503;28;20030;-72
2023/05/24 11:19:33;;;;;;;14.50;6.25;;;15.10;57.10;;;;;;5036253;28;20026;-73
2023/05/24 11:22:00;;;;;;;15.73;7.05;;;15.20;55.90;;;;;;5036210;28;20052;-73
2023/05/24 11:24:26;;;;;;;16.25;6.53;;;15.30;55.40;;;;;;5036406;28;20053;-73
2023/05/24 11:26:52;;;;;;;14.95;6.60;;;15.40;55.20;;;;;;5036218;28;20026;-74
2023/05/24 11:29:21;;;;;;;15.60;6.43;;;15.40;54.90;;;;;;5036187;28;20017;-74
2023/05/24 11:31:49;;;;;;;18.52;7.78;;;15.30;53.70;;;;;;5035894;28;20053;-74
2023/05/24 11:34:16;;;;;;;20.55;8.25;;;15.10;54.60;;;;;;5036001;28;20029;-75
2023/05/24 11:36:42;;;;;;;19.75;7.40;;;14.90;56.10;;;;;;5035884;28;20516;-74
2023/05/24 11:39:08;;;;;;;22.48;8.10;;;14.80;56.90;;;;;;5035962;28;20115;-74
2023/05/24 11:41:38;;;;;;;18.23;7.18;;;14.50;57.10;;;;;;5039993;28;20023;-74
2023/05/24 11:44:04;;;;;;;22.33;7.03;;;14.40;58.10;;;;;;5035816;28;20041;-74
2023/05/24 11:46:31;;;;;;;15.27;6.30;;;14.20;58.40;;;;;;5035790;28;20033;-73
2023/05/24 11:48:56;;;;;;;16.50;6.65;;;14.00;59.10;;;;;;5035728;28;20067;-74
2023/05/24 11:51:29;;;;;;;17.45;6.78;;;13.90;59.70;;;;;;5035660;28;20450;-74
2023/05/24 11:53:56;;;;;;;19.75;6.93;;;13.90;60.00;;;;;;5035758;28;20068;-74
2023/05/24 11:56:23;;;;;;;16.30;6.50;;;14.00;59.90;;;;;;5035723;28;20136;-74
2023/05/24 11:58:51;;;;;;;16.33;7.18;;;14.00;59.60;;;;;;5035604;28;20030;-74
2023/05/24 12:01:24;;;;;;;20.17;7.45;;;13.90;59.60;;;;;;5035482;28;20067;-73
2023/05/24 12:03:52;;;;;;;16.60;7.22;;;14.00;59.20;;;;;;5034942;28;20021;-73
2023/05/24 12:06:18;;;;;;;17.85;7.70;;;14.10;59.40;;;;;;5034270;28;20090;-73
2023/05/24 12:08:44;;;;;;;21.77;7.25;;;14.10;58.70;;;;;;5035477;28;20018;-73
2023/05/24 12:11:10;;;;;;;19.45;6.60;;;14.20;58.50;;;;;;5033742;28;20418;-74
2023/05/24 12:13:36;;;;;;;22.30;7.13;;;14.30;58.40;;;;;;5035348;28;20060;-75
2023/05/24 12:16:02;;;;;;;20.50;7.05;;;14.40;57.90;;;;;;5035272;28;20021;-75
2023/05/24 12:18:28;;;;;;;19.92;7.85;;;14.70;58.60;;;;;;5033950;28;20036;-76
2023/05/24 12:20:54;;;;;;;22.77;9.77;;;14.90;57.50;;;;;;5035151;28;20363;-75
2023/05/24 12:23:27;;;;;;;19.00;6.82;;;14.80;55.70;;;;;;5035250;28;20025;-75
2023/05/24 12:26:00;;;;;;;19.25;7.00;;;14.70;56.30;;;;;;5035258;28;20470;-74
2023/05/24 12:28:26;;;;;;;17.58;6.00;;;14.50;56.80;;;;;;5035021;28;20021;-74
2023/05/24 12:30:52;;;;;;;16.98;6.07;;;14.50;56.80;;;;;;5034925;28;20473;-74
2023/05/24 12:33:18;;;;;;;20.75;6.63;;;14.70;56.70;;;;;;5034896;28;20029;-73
2023/05/24 12:35:45;;;;;;;14.60;6.38;;;14.50;56.90;;;;;;5034875;28;20099;-73
2023/05/24 12:38:11;;;;;;;17.75;6.55;;;14.20;57.30;;;;;;5034677;28;20399;-75
2023/05/24 12:40:36;;;;;;;20.75;5.97;;;14.10;57.80;;;;;;5034451;28;20025;-73
2023/05/24 12:43:04;;;;;;;20.75;6.43;;;14.10;58.10;;;;;;5034701;28;20447;-73
2023/05/24 12:45:30;;;;;;;18.77;6.80;;;14.00;57.90;;;;;;5034632;28;20131;-73